createdAt,value
2023-05-06T00:01:02.327Z,0
2023-05-06T00:06:02.302Z,0
2023-05-06T00:11:02.334Z,0
2023-05-06T00:16:02.314Z,0
2023-05-06T00:21:02.312Z,0
2023-05-06T00:26:02.390Z,0
2023-05-06T00:31:02.349Z,0
2023-05-06T00:36:02.345Z,0
2023-05-06T00:41:02.354Z,0
2023-05-06T00:46:02.341Z,0
2023-05-06T00:51:02.339Z,0
2023-05-06T00:56:02.312Z,0
2023-05-06T01:01:02.428Z,0
2023-05-06T01:06:02.322Z,0
2023-05-06T01:11:02.349Z,0
2023-05-06T01:16:02.356Z,0
2023-05-06T01:21:02.388Z,0
2023-05-06T01:26:02.360Z,0
2023-05-06T01:31:02.385Z,0
2023-05-06T01:36:02.358Z,0
2023-05-06T01:41:02.362Z,0
2023-05-06T01:46:02.388Z,0
2023-05-06T01:51:02.392Z,0
2023-05-06T01:56:02.364Z,0
2023-05-06T02:01:02.339Z,0
2023-05-06T02:06:02.369Z,0
2023-05-06T02:11:02.383Z,0
2023-05-06T02:16:02.414Z,0
2023-05-06T02:21:02.362Z,0
2023-05-06T02:26:02.394Z,0
2023-05-06T02:31:02.391Z,0
2023-05-06T02:36:02.396Z,0
2023-05-06T02:41:02.389Z,0
2023-05-06T02:46:02.416Z,0
2023-05-06T02:51:02.398Z,0
2023-05-06T02:56:02.414Z,0
2023-05-06T03:01:02.407Z,0
2023-05-06T03:06:02.443Z,0
2023-05-06T03:11:02.433Z,0
2023-05-06T03:16:02.398Z,0
2023-05-06T03:21:02.415Z,0
2023-05-06T03:26:02.371Z,0
2023-05-06T03:31:02.396Z,0
2023-05-06T03:36:02.408Z,0
2023-05-06T03:41:02.383Z,256
2023-05-06T03:46:02.425Z,257
2023-05-06T03:51:02.371Z,257
2023-05-06T03:56:02.395Z,263
2023-05-06T04:01:02.390Z,265
2023-05-06T04:06:02.389Z,269
2023-05-06T04:11:02.398Z,274
2023-05-06T04:16:02.380Z,282
2023-05-06T04:21:02.394Z,289
2023-05-06T04:26:02.370Z,308
2023-05-06T04:31:02.421Z,317
2023-05-06T04:36:02.442Z,325
2023-05-06T04:41:02.448Z,350
2023-05-06T04:46:02.420Z,360
2023-05-06T04:51:02.401Z,350
2023-05-06T04:56:02.462Z,377
2023-05-06T05:01:02.411Z,396
2023-05-06T05:06:02.403Z,442
2023-05-06T05:11:02.399Z,501
2023-05-06T05:16:02.400Z,424
2023-05-06T05:21:02.409Z,421
2023-05-06T05:26:02.472Z,413
2023-05-06T05:31:02.430Z,451
2023-05-06T05:36:02.374Z,474
2023-05-06T05:41:02.515Z,468
2023-05-06T05:46:02.395Z,428
2023-05-06T05:51:02.433Z,404
2023-05-06T05:56:02.427Z,528
2023-05-06T06:01:02.405Z,487
2023-05-06T06:06:02.432Z,499
2023-05-06T06:11:02.435Z,564
2023-05-06T06:16:02.407Z,565
2023-05-06T06:21:02.369Z,816
2023-05-06T06:26:02.449Z,690
2023-05-06T06:31:02.440Z,1020
2023-05-06T06:36:02.371Z,1096
2023-05-06T06:41:02.371Z,1000
2023-05-06T06:46:02.414Z,923
2023-05-06T06:51:02.451Z,1139
2023-05-06T06:56:02.412Z,1046
2023-05-06T07:01:02.470Z,757
2023-05-06T07:06:02.674Z,628
2023-05-06T07:11:02.417Z,836
2023-05-06T07:16:02.510Z,1036
2023-05-06T07:21:02.462Z,863
2023-05-06T07:26:02.457Z,903
2023-05-06T07:31:02.462Z,1545
2023-05-06T07:36:02.450Z,810
2023-05-06T07:41:02.415Z,1026
2023-05-06T07:46:02.551Z,1232
2023-05-06T07:51:02.423Z,1757
2023-05-06T07:56:02.481Z,953
2023-05-06T08:01:02.405Z,1017
2023-05-06T08:06:02.451Z,1136
2023-05-06T08:11:02.462Z,1111
2023-05-06T08:16:02.571Z,1688
2023-05-06T08:21:02.402Z,751
2023-05-06T08:26:02.475Z,978
2023-05-06T08:31:02.443Z,1359
2023-05-06T08:36:02.457Z,1458
2023-05-06T08:41:02.470Z,941
2023-05-06T08:46:02.514Z,807
2023-05-06T08:51:02.475Z,801
2023-05-06T08:56:02.529Z,1228
2023-05-06T09:01:02.439Z,8287
2023-05-06T09:06:02.472Z,9399
2023-05-06T09:11:02.454Z,10556
2023-05-06T09:16:02.451Z,12725
2023-05-06T09:21:02.456Z,11212
2023-05-06T09:26:02.442Z,10254
2023-05-06T09:31:02.520Z,7462
2023-05-06T09:36:02.473Z,10350
2023-05-06T09:41:02.418Z,1080
2023-05-06T09:46:02.481Z,12344
2023-05-06T09:51:02.505Z,12298
2023-05-06T09:56:02.474Z,8518
2023-05-06T10:01:02.449Z,1699
2023-05-06T10:06:02.507Z,7368
2023-05-06T10:11:02.484Z,1532
2023-05-06T10:16:02.559Z,1824
2023-05-06T10:21:02.482Z,891
2023-05-06T10:26:02.470Z,675
2023-05-06T10:31:02.470Z,570
2023-05-06T10:36:02.424Z,684
2023-05-06T10:41:02.503Z,921
2023-05-06T10:46:02.578Z,1679
2023-05-06T10:51:02.475Z,2165
2023-05-06T10:56:02.519Z,1544
2023-05-06T11:01:08.580Z,1333
2023-05-06T11:06:02.479Z,1670
2023-05-06T11:16:02.439Z,992
2023-05-06T11:21:02.656Z,1269
2023-05-06T11:26:02.502Z,1624
2023-05-06T11:31:02.502Z,1923
2023-05-06T11:41:06.576Z,1381
2023-05-06T11:46:06.573Z,1762
2023-05-06T11:51:06.492Z,1233
2023-05-06T12:01:06.492Z,1129
2023-05-06T12:06:06.523Z,1025
2023-05-06T12:11:06.533Z,1054
2023-05-06T12:16:06.522Z,877
2023-05-06T12:21:06.761Z,1344
2023-05-06T12:26:06.672Z,1501
2023-05-06T12:31:06.572Z,1219
2023-05-06T12:36:06.503Z,1136
2023-05-06T12:41:06.510Z,1111
2023-05-06T12:46:06.567Z,897
2023-05-06T12:51:06.526Z,755
2023-05-06T12:56:06.517Z,949
2023-05-06T13:01:06.564Z,1218
2023-05-06T13:06:06.573Z,940
2023-05-06T13:11:06.574Z,812
2023-05-06T13:16:06.555Z,617
2023-05-06T13:21:06.556Z,834
2023-05-06T13:26:06.528Z,827
2023-05-06T13:31:06.520Z,862
2023-05-06T13:36:06.541Z,1063
2023-05-06T13:41:06.554Z,927
2023-05-06T13:46:06.594Z,989
2023-05-06T13:51:06.575Z,1001
2023-05-06T13:56:06.532Z,959
2023-05-06T14:01:06.556Z,955
2023-05-06T14:06:06.613Z,1236
2023-05-06T14:11:06.569Z,1007
2023-05-06T14:16:06.551Z,1022
2023-05-06T14:21:06.525Z,1016
2023-05-06T14:26:06.573Z,956
2023-05-06T14:31:06.588Z,883
2023-05-06T14:36:06.576Z,925
2023-05-06T14:41:06.588Z,795
2023-05-06T14:46:06.600Z,819
2023-05-06T14:51:06.608Z,785
2023-05-06T14:56:06.604Z,718
2023-05-06T15:01:06.630Z,734
2023-05-06T15:06:06.562Z,781
2023-05-06T15:11:06.526Z,584
2023-05-06T15:16:07.189Z,798
2023-05-06T15:21:06.550Z,698
2023-05-06T15:26:06.620Z,626
2023-05-06T15:31:06.597Z,594
2023-05-06T15:36:06.531Z,602
2023-05-06T15:41:06.569Z,594
2023-05-06T15:46:06.611Z,595
2023-05-06T15:51:06.569Z,589
2023-05-06T15:56:16.512Z,557
2023-05-06T16:01:06.639Z,518
2023-05-06T16:06:07.087Z,507
2023-05-06T16:11:06.601Z,516
2023-05-06T16:16:06.661Z,515
2023-05-06T16:21:06.584Z,495
2023-05-06T16:26:06.641Z,487
2023-05-06T16:31:06.717Z,483
2023-05-06T16:41:06.610Z,471
2023-05-06T16:46:06.571Z,437
2023-05-06T16:51:06.581Z,418
2023-05-06T16:56:06.557Z,425
2023-05-06T17:01:06.623Z,405
2023-05-06T17:06:06.573Z,387
2023-05-06T17:11:06.643Z,381
2023-05-06T17:16:06.611Z,350
2023-05-06T17:21:07.637Z,343
2023-05-06T17:26:10.187Z,345
2023-05-06T17:31:06.652Z,339
2023-05-06T17:36:06.623Z,333
2023-05-06T17:41:06.656Z,324
2023-05-06T17:46:06.602Z,310
2023-05-06T17:51:06.628Z,319
2023-05-06T17:56:06.609Z,311
2023-05-06T18:01:06.641Z,303
2023-05-06T18:16:06.681Z,283
2023-05-06T18:21:06.634Z,276
2023-05-06T18:26:06.634Z,271
2023-05-06T18:31:06.845Z,262
2023-05-06T18:36:06.696Z,260
2023-05-06T18:51:10.420Z,0
2023-05-06T19:06:10.306Z,0
2023-05-06T19:11:10.387Z,0
2023-05-06T19:16:10.352Z,0
2023-05-06T19:21:10.307Z,0
2023-05-06T19:26:10.285Z,0
2023-05-06T19:31:10.418Z,0
2023-05-06T19:36:10.327Z,0
2023-05-06T19:41:10.284Z,0
2023-05-06T19:46:10.375Z,0
2023-05-06T19:51:10.314Z,0
2023-05-06T19:56:10.327Z,0
2023-05-06T20:01:10.415Z,0
2023-05-06T20:06:10.334Z,0
2023-05-06T20:11:10.380Z,0
2023-05-06T20:16:10.384Z,0
2023-05-06T20:21:10.359Z,0
2023-05-06T20:26:10.331Z,0
2023-05-06T20:31:10.355Z,0
2023-05-06T20:36:10.357Z,0
2023-05-06T20:41:10.374Z,0
2023-05-06T20:46:10.372Z,0
2023-05-06T20:51:10.340Z,0
2023-05-06T20:56:10.348Z,0
2023-05-06T21:01:10.387Z,0
2023-05-06T21:06:10.372Z,0
2023-05-06T21:11:10.320Z,0
2023-05-06T21:16:10.365Z,0
2023-05-06T21:21:10.372Z,0
2023-05-06T21:26:10.366Z,0
2023-05-06T21:31:10.357Z,0
2023-05-06T21:36:10.323Z,0
2023-05-06T21:41:10.373Z,0
2023-05-06T21:46:10.384Z,0
2023-05-06T21:51:10.384Z,0
2023-05-06T21:56:10.333Z,0
2023-05-06T22:01:10.386Z,0
2023-05-06T22:06:10.345Z,0
2023-05-06T22:11:10.392Z,0
2023-05-06T22:16:10.350Z,0
2023-05-06T22:21:10.384Z,0
2023-05-06T22:26:10.338Z,0
2023-05-06T22:31:10.402Z,0
2023-05-06T22:36:10.389Z,0
2023-05-06T22:41:10.373Z,0
2023-05-06T22:46:10.339Z,0
2023-05-06T22:51:10.355Z,0
2023-05-06T22:56:10.340Z,0
2023-05-06T23:01:10.473Z,0
2023-05-06T23:06:10.393Z,0
2023-05-06T23:11:10.329Z,0
2023-05-06T23:16:10.364Z,0
2023-05-06T23:21:10.392Z,0
2023-05-06T23:26:10.370Z,0
2023-05-06T23:31:10.417Z,0
2023-05-06T23:36:10.387Z,0
2023-05-06T23:41:10.370Z,0
2023-05-06T23:46:10.392Z,0
2023-05-06T23:51:10.392Z,0
2023-05-06T23:56:10.358Z,0
